createdAt,value
2023-05-03T00:00:21.296Z,12.40
2023-05-03T00:02:48.233Z,12.35
2023-05-03T00:05:15.447Z,12.29
2023-05-03T00:07:43.802Z,12.25
2023-05-03T00:10:13.343Z,12.24
2023-05-03T00:12:40.858Z,12.23
2023-05-03T00:15:08.624Z,12.25
2023-05-03T00:17:50.688Z,12.29
2023-05-03T00:20:17.628Z,12.31
2023-05-03T00:22:44.505Z,12.32
2023-05-03T00:25:11.353Z,12.33
2023-05-03T00:27:38.576Z,12.33
2023-05-03T00:30:06.073Z,12.32
2023-05-03T00:32:33.587Z,12.30
2023-05-03T00:35:00.742Z,12.30
2023-05-03T00:37:27.765Z,12.28
2023-05-03T00:39:54.556Z,12.24
2023-05-03T00:42:21.546Z,12.20
2023-05-03T00:44:48.398Z,12.15
2023-05-03T00:47:16.669Z,12.10
2023-05-03T00:49:44.613Z,12.06
2023-05-03T00:52:11.673Z,12.04
2023-05-03T00:54:39.626Z,12.03
2023-05-03T00:57:06.835Z,12.00
2023-05-03T00:59:34.613Z,11.95
2023-05-03T01:02:02.087Z,11.91
2023-05-03T01:04:30.170Z,11.85
2023-05-03T01:07:26.454Z,11.81
2023-05-03T01:10:03.912Z,11.77
2023-05-03T01:12:47.207Z,11.78
2023-05-03T01:15:17.527Z,11.80
2023-05-03T01:17:58.104Z,11.80
2023-05-03T01:20:30.971Z,11.77
2023-05-03T01:22:58.249Z,11.74
2023-05-03T01:25:27.515Z,11.75
2023-05-03T01:27:54.290Z,11.78
2023-05-03T01:30:25.320Z,11.82
2023-05-03T01:33:08.629Z,11.84
2023-05-03T01:35:38.853Z,11.89
2023-05-03T01:38:06.085Z,11.91
2023-05-03T01:40:38.901Z,11.93
2023-05-03T01:43:06.811Z,11.93
2023-05-03T01:45:33.673Z,11.95
2023-05-03T01:48:00.708Z,11.98
2023-05-03T01:50:27.613Z,12.01
2023-05-03T01:52:54.414Z,12.05
2023-05-03T01:55:21.184Z,12.09
2023-05-03T01:57:47.970Z,12.12
2023-05-03T02:00:14.892Z,12.13
2023-05-03T02:02:41.705Z,12.14
2023-05-03T02:05:10.045Z,12.14
2023-05-03T02:07:36.833Z,12.16
2023-05-03T02:10:05.476Z,12.18
2023-05-03T02:12:32.643Z,12.22
2023-05-03T02:15:00.030Z,12.24
2023-05-03T02:17:26.877Z,12.25
2023-05-03T02:19:53.799Z,12.23
2023-05-03T02:22:20.654Z,12.21
2023-05-03T02:24:47.953Z,12.18
2023-05-03T02:27:15.862Z,12.21
2023-05-03T02:29:43.615Z,12.24
2023-05-03T02:32:10.695Z,12.26
2023-05-03T02:34:39.139Z,12.28
2023-05-03T02:37:06.714Z,12.27
2023-05-03T02:39:33.861Z,12.28
2023-05-03T02:42:00.811Z,12.27
2023-05-03T02:44:28.132Z,12.26
2023-05-03T02:46:55.028Z,12.27
2023-05-03T02:49:22.153Z,12.29
2023-05-03T02:51:48.990Z,12.31
2023-05-03T02:54:15.849Z,12.33
2023-05-03T02:56:42.762Z,12.35
2023-05-03T02:59:09.660Z,12.35
2023-05-03T03:01:36.684Z,12.36
2023-05-03T03:04:04.247Z,12.36
2023-05-03T03:06:31.526Z,12.37
2023-05-03T03:08:58.862Z,12.34
2023-05-03T03:11:25.778Z,12.31
2023-05-03T03:13:52.697Z,12.30
2023-05-03T03:16:20.763Z,12.32
2023-05-03T03:18:47.598Z,12.33
2023-05-03T03:21:14.741Z,12.35
2023-05-03T03:23:41.471Z,12.36
2023-05-03T03:26:08.389Z,12.38
2023-05-03T03:28:35.588Z,12.40
2023-05-03T03:31:03.540Z,12.44
2023-05-03T03:33:30.880Z,12.45
2023-05-03T03:35:59.632Z,12.45
2023-05-03T03:38:26.776Z,12.46
2023-05-03T03:40:56.520Z,12.47
2023-05-03T03:43:23.634Z,12.49
2023-05-03T03:45:50.546Z,12.52
2023-05-03T03:48:17.641Z,12.55
2023-05-03T03:50:45.845Z,12.57
2023-05-03T03:53:13.290Z,12.59
2023-05-03T03:55:40.237Z,12.58
2023-05-03T03:58:07.105Z,12.57
2023-05-03T04:00:35.752Z,12.55
2023-05-03T04:03:07.882Z,12.55
2023-05-03T04:05:35.166Z,12.57
2023-05-03T04:08:02.415Z,12.60
2023-05-03T04:10:30.822Z,12.60
2023-05-03T04:12:57.664Z,12.58
2023-05-03T04:15:24.431Z,12.54
2023-05-03T04:17:52.014Z,12.52
2023-05-03T04:20:20.051Z,12.53
2023-05-03T04:22:48.070Z,12.55
2023-05-03T04:25:17.354Z,12.58
2023-05-03T04:27:47.969Z,12.60
2023-05-03T04:30:15.677Z,12.62
2023-05-03T04:32:43.510Z,12.61
2023-05-03T04:35:12.635Z,12.61
2023-05-03T04:37:43.488Z,12.62
2023-05-03T04:40:12.478Z,12.63
2023-05-03T04:42:42.551Z,12.63
2023-05-03T04:45:10.998Z,12.66
2023-05-03T04:47:37.832Z,12.68
2023-05-03T04:50:05.722Z,12.68
2023-05-03T04:52:33.012Z,12.69
2023-05-03T04:55:00.246Z,12.71
2023-05-03T04:57:27.449Z,12.72
2023-05-03T04:59:54.288Z,12.76
2023-05-03T05:02:21.798Z,12.80
2023-05-03T05:04:48.951Z,12.82
2023-05-03T05:07:16.270Z,12.85
2023-05-03T05:09:44.028Z,12.84
2023-05-03T05:12:12.347Z,12.85
2023-05-03T05:14:40.942Z,12.85
2023-05-03T05:17:08.531Z,12.86
2023-05-03T05:19:36.701Z,12.87
2023-05-03T05:22:04.004Z,12.89
2023-05-03T05:24:39.085Z,12.90
2023-05-03T05:27:06.827Z,12.92
2023-05-03T05:29:34.102Z,12.92
2023-05-03T05:32:03.592Z,12.93
2023-05-03T05:34:39.162Z,12.95
2023-05-03T05:37:11.547Z,12.97
2023-05-03T05:39:38.976Z,13.02
2023-05-03T05:42:06.145Z,13.05
2023-05-03T05:44:33.182Z,13.07
2023-05-03T05:47:01.142Z,13.08
2023-05-03T05:49:29.110Z,13.08
2023-05-03T05:51:56.620Z,13.09
2023-05-03T05:54:24.183Z,13.12
2023-05-03T05:56:51.600Z,13.16
2023-05-03T05:59:19.094Z,13.18
2023-05-03T06:01:46.881Z,13.21
2023-05-03T06:04:16.528Z,13.20
2023-05-03T06:06:45.020Z,13.23
2023-05-03T06:09:23.370Z,13.24
2023-05-03T06:11:53.688Z,13.27
2023-05-03T06:14:21.013Z,13.29
2023-05-03T06:16:48.141Z,13.33
2023-05-03T06:19:15.233Z,13.34
2023-05-03T06:21:42.117Z,13.34
2023-05-03T06:24:08.888Z,13.31
2023-05-03T06:26:35.658Z,13.29
2023-05-03T06:29:03.671Z,13.26
2023-05-03T06:31:31.166Z,13.25
2023-05-03T06:33:58.516Z,13.24
2023-05-03T06:36:26.009Z,13.21
2023-05-03T06:38:52.847Z,13.19
2023-05-03T06:41:19.585Z,13.14
2023-05-03T06:43:46.644Z,13.08
2023-05-03T06:46:13.560Z,13.08
2023-05-03T06:48:40.423Z,13.10
2023-05-03T06:51:07.437Z,13.14
2023-05-03T06:53:35.405Z,13.16
2023-05-03T06:56:03.780Z,13.22
2023-05-03T06:58:30.896Z,13.32
2023-05-03T07:00:57.669Z,13.45
2023-05-03T07:03:24.621Z,13.59
2023-05-03T07:05:51.608Z,13.72
2023-05-03T07:08:18.357Z,13.84
2023-05-03T07:10:45.156Z,13.94
2023-05-03T07:13:12.040Z,14.05
2023-05-03T07:15:38.855Z,14.18
2023-05-03T07:18:05.800Z,14.30
2023-05-03T07:20:32.619Z,14.41
2023-05-03T07:22:59.638Z,14.54
2023-05-03T07:25:27.425Z,14.65
2023-05-03T07:27:54.186Z,14.77
2023-05-03T07:30:22.243Z,14.87
2023-05-03T07:32:49.099Z,14.95
2023-05-03T07:35:16.807Z,15.01
2023-05-03T07:37:43.678Z,15.07
2023-05-03T07:40:12.007Z,15.15
2023-05-03T07:42:38.856Z,15.24
2023-05-03T07:45:06.505Z,15.33
2023-05-03T07:47:37.793Z,15.42
2023-05-03T07:50:06.139Z,15.51
2023-05-03T07:52:37.136Z,15.55
2023-05-03T07:55:04.254Z,15.58
2023-05-03T07:57:31.350Z,15.57
2023-05-03T07:59:58.083Z,15.55
2023-05-03T08:02:25.010Z,15.57
2023-05-03T08:04:52.049Z,15.60
2023-05-03T08:07:18.910Z,15.59
2023-05-03T08:09:45.958Z,15.61
2023-05-03T08:12:12.830Z,15.65
2023-05-03T08:14:40.651Z,15.71
2023-05-03T08:17:08.169Z,15.76
2023-05-03T08:19:34.860Z,15.84
2023-05-03T08:22:01.725Z,15.88
2023-05-03T08:24:28.718Z,15.85
2023-05-03T08:26:55.547Z,15.82
2023-05-03T08:29:22.318Z,15.78
2023-05-03T08:31:49.302Z,15.74
2023-05-03T08:34:16.284Z,15.70
2023-05-03T08:36:43.018Z,15.67
2023-05-03T08:39:11.571Z,15.66
2023-05-03T08:41:39.835Z,15.72
2023-05-03T08:44:08.456Z,15.83
2023-05-03T08:46:37.396Z,15.98
2023-05-03T08:49:06.860Z,16.14
2023-05-03T08:51:34.534Z,16.29
2023-05-03T08:54:01.319Z,16.42
2023-05-03T08:56:33.425Z,16.52
2023-05-03T08:59:07.778Z,16.57
2023-05-03T09:01:37.370Z,16.57
2023-05-03T09:04:04.837Z,16.57
2023-05-03T09:06:35.276Z,16.58
2023-05-03T09:09:08.048Z,16.56
2023-05-03T09:11:36.427Z,16.49
2023-05-03T09:14:13.007Z,16.41
2023-05-03T09:16:41.188Z,16.29
2023-05-03T09:19:12.218Z,16.14
2023-05-03T09:21:40.947Z,16.06
2023-05-03T09:24:18.889Z,15.95
2023-05-03T09:26:48.036Z,15.80
2023-05-03T09:29:36.795Z,15.61
2023-05-03T09:32:07.582Z,15.33
2023-05-03T09:34:35.903Z,15.13
2023-05-03T09:37:02.944Z,14.91
2023-05-03T09:39:29.952Z,14.80
2023-05-03T09:41:56.982Z,14.66
2023-05-03T09:44:42.006Z,14.56
2023-05-03T09:47:10.208Z,14.52
2023-05-03T09:49:38.400Z,14.50
2023-05-03T09:52:07.125Z,14.51
2023-05-03T09:54:35.496Z,14.49
2023-05-03T09:57:05.044Z,14.46
2023-05-03T09:59:33.127Z,14.47
2023-05-03T10:02:03.191Z,14.45
2023-05-03T10:04:41.827Z,14.42
2023-05-03T10:07:13.510Z,14.39
2023-05-03T10:09:44.501Z,14.33
2023-05-03T10:12:13.267Z,14.25
2023-05-03T10:14:42.244Z,14.25
2023-05-03T10:17:14.432Z,14.26
2023-05-03T10:19:52.572Z,14.27
2023-05-03T10:22:19.449Z,14.28
2023-05-03T10:25:02.695Z,14.30
2023-05-03T10:27:45.978Z,14.32
2023-05-03T10:30:31.339Z,14.32
2023-05-03T10:33:00.309Z,14.33
2023-05-03T10:35:28.744Z,14.34
2023-05-03T10:37:57.755Z,14.33
2023-05-03T10:40:28.714Z,14.33
2023-05-03T10:42:56.513Z,14.32
2023-05-03T10:45:26.506Z,14.35
2023-05-03T10:48:12.198Z,14.40
2023-05-03T10:50:40.408Z,14.44
2023-05-03T10:53:07.644Z,14.52
2023-05-03T10:55:34.899Z,14.60
2023-05-03T10:58:03.554Z,14.67
2023-05-03T11:00:31.385Z,14.77
2023-05-03T11:03:13.605Z,14.85
2023-05-03T11:05:40.767Z,14.93
2023-05-03T11:08:23.399Z,15.00
2023-05-03T11:10:59.930Z,15.10
2023-05-03T11:13:28.065Z,15.20
2023-05-03T11:15:56.411Z,15.27
2023-05-03T11:18:27.570Z,15.35
2023-05-03T11:20:54.486Z,15.42
2023-05-03T11:23:26.205Z,15.47
2023-05-03T11:25:53.088Z,15.48
2023-05-03T11:28:19.869Z,15.50
2023-05-03T11:30:47.315Z,15.53
2023-05-03T11:33:14.460Z,15.57
2023-05-03T11:35:42.348Z,15.58
2023-05-03T11:38:10.633Z,15.63
2023-05-03T11:40:39.656Z,15.65
2023-05-03T11:43:07.773Z,15.67
2023-05-03T11:45:42.054Z,15.67
2023-05-03T11:48:09.153Z,15.64
2023-05-03T11:50:55.311Z,15.62
2023-05-03T11:53:24.371Z,15.58
2023-05-03T11:55:54.006Z,15.61
2023-05-03T11:58:25.053Z,15.65
2023-05-03T12:00:54.154Z,15.69
2023-05-03T12:03:25.389Z,15.76
2023-05-03T12:05:54.931Z,15.91
2023-05-03T12:08:29.508Z,16.05
2023-05-03T12:10:58.687Z,16.16
2023-05-03T12:13:29.888Z,16.16
2023-05-03T12:16:11.664Z,16.17
2023-05-03T12:18:58.819Z,16.28
2023-05-03T12:21:54.137Z,16.36
2023-05-03T12:24:28.672Z,16.45
2023-05-03T12:26:57.301Z,16.52
2023-05-03T12:29:24.901Z,16.57
2023-05-03T12:31:52.761Z,16.60
2023-05-03T12:34:33.563Z,16.63
2023-05-03T12:37:04.656Z,16.64
2023-05-03T12:39:34.105Z,16.63
2023-05-03T12:44:35.192Z,16.65
2023-05-03T12:47:04.121Z,16.68
2023-05-03T12:49:32.139Z,16.69
2023-05-03T12:54:33.678Z,16.86
2023-05-03T12:57:08.577Z,16.95
2023-05-03T12:59:42.014Z,17.10
2023-05-03T13:07:15.121Z,17.46
2023-05-03T13:12:34.233Z,17.65
2023-05-03T13:15:03.673Z,17.66
2023-05-03T13:17:31.413Z,17.65
2023-05-03T13:19:58.372Z,17.70
2023-05-03T13:22:25.322Z,17.74
2023-05-03T13:24:52.481Z,17.77
2023-05-03T13:27:19.453Z,17.78
2023-05-03T13:29:49.527Z,17.78
2023-05-03T13:32:17.168Z,17.74
2023-05-03T13:34:44.332Z,17.70
2023-05-03T13:37:11.946Z,17.62
2023-05-03T13:39:38.897Z,17.49
2023-05-03T13:42:07.641Z,17.47
2023-05-03T13:44:34.928Z,17.38
2023-05-03T13:47:01.812Z,17.33
2023-05-03T13:49:28.993Z,17.25
2023-05-03T13:51:55.847Z,17.19
2023-05-03T13:54:22.865Z,17.13
2023-05-03T13:56:49.901Z,17.08
2023-05-03T13:59:16.721Z,17.02
2023-05-03T14:01:43.812Z,16.97
2023-05-03T14:04:11.048Z,16.95
2023-05-03T14:06:40.461Z,16.97
2023-05-03T14:09:09.064Z,17.02
2023-05-03T14:11:35.953Z,17.09
2023-05-03T14:14:03.413Z,17.16
2023-05-03T14:16:40.651Z,17.23
2023-05-03T14:19:11.212Z,17.29
2023-05-03T14:21:38.720Z,17.31
2023-05-03T14:24:06.852Z,17.34
2023-05-03T14:26:34.378Z,17.40
2023-05-03T14:29:01.828Z,17.45
2023-05-03T14:31:28.792Z,17.43
2023-05-03T14:33:55.908Z,17.46
2023-05-03T14:36:23.268Z,17.42
2023-05-03T14:38:50.025Z,17.31
2023-05-03T14:41:17.093Z,17.32
2023-05-03T14:43:43.989Z,17.27
2023-05-03T14:46:11.089Z,17.27
2023-05-03T14:48:38.390Z,17.29
2023-05-03T14:51:05.840Z,17.29
2023-05-03T14:53:32.665Z,17.27
2023-05-03T14:55:59.926Z,17.20
2023-05-03T14:58:27.728Z,17.10
2023-05-03T15:00:54.796Z,17.03
2023-05-03T15:03:21.674Z,16.94
2023-05-03T15:05:49.676Z,16.90
2023-05-03T15:08:19.512Z,16.84
2023-05-03T15:10:47.836Z,16.80
2023-05-03T15:13:16.422Z,16.73
2023-05-03T15:15:44.511Z,16.64
2023-05-03T15:18:11.608Z,16.60
2023-05-03T15:20:38.798Z,16.57
2023-05-03T15:23:06.270Z,16.54
2023-05-03T15:25:33.531Z,16.50
2023-05-03T15:28:03.670Z,16.45
2023-05-03T15:30:32.258Z,16.40
2023-05-03T15:32:59.172Z,16.37
2023-05-03T15:35:26.294Z,16.33
2023-05-03T15:37:53.334Z,16.29
2023-05-03T15:40:20.613Z,16.27
2023-05-03T15:42:47.468Z,16.23
2023-05-03T15:45:15.572Z,16.20
2023-05-03T15:47:43.065Z,16.16
2023-05-03T15:50:10.958Z,16.11
2023-05-03T15:52:37.740Z,16.05
2023-05-03T15:55:05.087Z,16.00
2023-05-03T15:57:32.558Z,15.93
2023-05-03T15:59:59.488Z,15.84
2023-05-03T16:02:26.372Z,15.75
2023-05-03T16:04:53.448Z,15.68
2023-05-03T16:07:20.310Z,15.60
2023-05-03T16:09:47.161Z,15.51
2023-05-03T16:12:14.055Z,15.43
2023-05-03T16:14:41.330Z,15.36
2023-05-03T16:17:08.621Z,15.29
2023-05-03T16:19:37.635Z,15.22
2023-05-03T16:22:05.700Z,15.16
2023-05-03T16:24:34.345Z,15.10
2023-05-03T16:27:02.241Z,15.06
2023-05-03T16:29:29.539Z,15.01
2023-05-03T16:31:56.604Z,14.97
2023-05-03T16:34:23.607Z,14.94
2023-05-03T16:36:50.894Z,14.91
2023-05-03T16:39:18.070Z,14.90
2023-05-03T16:41:45.018Z,14.89
2023-05-03T16:44:14.863Z,14.88
2023-05-03T16:46:43.193Z,14.85
2023-05-03T16:49:10.067Z,14.83
2023-05-03T16:51:37.797Z,14.81
2023-05-03T16:54:05.142Z,14.77
2023-05-03T16:56:32.318Z,14.73
2023-05-03T16:58:59.362Z,14.70
2023-05-03T17:01:26.534Z,14.66
2023-05-03T17:03:53.693Z,14.63
2023-05-03T17:06:20.687Z,14.60
2023-05-03T17:08:47.967Z,14.57
2023-05-03T17:11:15.200Z,14.53
2023-05-03T17:13:42.338Z,14.46
2023-05-03T17:16:12.734Z,14.39
2023-05-03T17:18:40.628Z,14.33
2023-05-03T17:21:09.679Z,14.27
2023-05-03T17:23:38.434Z,14.23
2023-05-03T17:26:08.624Z,14.17
2023-05-03T17:28:36.582Z,14.11
2023-05-03T17:31:04.198Z,14.05
2023-05-03T17:33:31.300Z,13.99
2023-05-03T17:36:00.809Z,13.91
2023-05-03T17:38:27.770Z,13.85
2023-05-03T17:40:54.592Z,13.79
2023-05-03T17:43:21.572Z,13.72
2023-05-03T17:45:48.482Z,13.65
2023-05-03T17:48:15.770Z,13.57
2023-05-03T17:50:43.536Z,13.50
2023-05-03T17:53:10.352Z,13.42
2023-05-03T17:55:38.807Z,13.34
2023-05-03T17:58:06.514Z,13.27
2023-05-03T18:00:34.039Z,13.22
2023-05-03T18:03:01.552Z,13.18
2023-05-03T18:05:28.667Z,13.16
2023-05-03T18:07:55.504Z,13.13
2023-05-03T18:10:37.771Z,13.09
2023-05-03T18:13:04.749Z,13.03
2023-05-03T18:15:31.583Z,12.96
2023-05-03T18:17:58.545Z,12.90
2023-05-03T18:20:25.377Z,12.83
2023-05-03T18:22:52.627Z,12.74
2023-05-03T18:25:19.481Z,12.65
2023-05-03T18:27:46.427Z,12.57
2023-05-03T18:30:13.597Z,12.49
2023-05-03T18:32:40.588Z,12.46
2023-05-03T18:35:08.093Z,12.43
2023-05-03T18:37:35.071Z,12.41
2023-05-03T18:40:02.307Z,12.33
2023-05-03T18:42:32.029Z,12.25
2023-05-03T18:44:59.839Z,12.14
2023-05-03T18:47:27.568Z,11.98
2023-05-03T18:49:54.371Z,11.83
2023-05-03T18:52:21.938Z,11.68
2023-05-03T18:54:50.519Z,11.50
2023-05-03T18:57:17.576Z,11.35
2023-05-03T18:59:56.734Z,11.24
2023-05-03T19:02:30.787Z,11.17
2023-05-03T19:04:58.327Z,11.12
2023-05-03T19:07:25.388Z,11.07
2023-05-03T19:09:54.787Z,11.02
2023-05-03T19:12:21.816Z,10.93
2023-05-03T19:14:48.683Z,10.79
2023-05-03T19:17:15.553Z,10.65
2023-05-03T19:19:42.407Z,10.53
2023-05-03T19:22:09.225Z,10.40
2023-05-03T19:24:36.542Z,10.26
2023-05-03T19:27:04.652Z,10.12
2023-05-03T19:29:31.735Z,10.01
2023-05-03T19:31:59.676Z,9.93
2023-05-03T19:34:28.091Z,9.83
2023-05-03T19:36:55.526Z,9.72
2023-05-03T19:39:22.402Z,9.58
2023-05-03T19:41:50.439Z,9.47
2023-05-03T19:44:33.568Z,9.34
2023-05-03T19:47:00.399Z,9.21
2023-05-03T19:49:27.377Z,9.09
2023-05-03T19:51:54.267Z,8.99
2023-05-03T19:54:21.789Z,8.91
2023-05-03T19:56:48.961Z,8.84
2023-05-03T19:59:16.270Z,8.77
2023-05-03T20:01:45.193Z,8.66
2023-05-03T20:04:12.257Z,8.55
2023-05-03T20:06:39.141Z,8.45
2023-05-03T20:09:06.460Z,8.32
2023-05-03T20:11:33.331Z,8.17
2023-05-03T20:14:00.169Z,8.06
2023-05-03T20:16:32.384Z,7.99
2023-05-03T20:19:00.010Z,7.93
2023-05-03T20:21:27.073Z,7.87
2023-05-03T20:23:54.567Z,7.80
2023-05-03T20:26:21.955Z,7.71
2023-05-03T20:28:49.203Z,7.60
2023-05-03T20:31:16.181Z,7.50
2023-05-03T20:33:43.099Z,7.37
2023-05-03T20:36:12.822Z,7.31
2023-05-03T20:38:39.832Z,7.24
2023-05-03T20:41:06.698Z,7.22
2023-05-03T20:43:33.504Z,7.17
2023-05-03T20:46:00.530Z,7.07
2023-05-03T20:48:27.931Z,7.01
2023-05-03T20:50:55.143Z,6.95
2023-05-03T20:53:21.968Z,6.88
2023-05-03T20:55:55.453Z,6.81
2023-05-03T20:58:22.817Z,6.76
2023-05-03T21:00:52.015Z,6.72
2023-05-03T21:03:20.323Z,6.66
2023-05-03T21:05:47.273Z,6.51
2023-05-03T21:08:14.061Z,6.48
2023-05-03T21:10:40.978Z,6.46
2023-05-03T21:13:07.853Z,6.39
2023-05-03T21:15:34.711Z,6.40
2023-05-03T21:18:06.708Z,6.39
2023-05-03T21:20:34.111Z,6.40
2023-05-03T21:23:00.902Z,6.38
2023-05-03T21:25:27.688Z,6.37
2023-05-03T21:27:54.884Z,6.34
2023-05-03T21:30:21.661Z,6.34
2023-05-03T21:32:49.946Z,6.32
2023-05-03T21:35:17.801Z,6.24
2023-05-03T21:37:47.475Z,6.22
2023-05-03T21:40:15.382Z,6.19
2023-05-03T21:42:42.972Z,6.19
2023-05-03T21:45:11.458Z,6.19
2023-05-03T21:47:38.525Z,6.17
2023-05-03T21:50:06.378Z,6.14
2023-05-03T21:52:33.789Z,6.09
2023-05-03T21:55:00.768Z,6.00
2023-05-03T21:57:28.022Z,5.95
2023-05-03T21:59:56.135Z,5.95
2023-05-03T22:02:23.358Z,5.99
2023-05-03T22:04:51.036Z,6.02
2023-05-03T22:07:17.959Z,6.02
2023-05-03T22:09:47.445Z,6.00
2023-05-03T22:14:45.217Z,5.93
2023-05-03T22:17:12.014Z,5.91
2023-05-03T22:19:39.067Z,5.90
2023-05-03T22:22:05.879Z,5.90
2023-05-03T22:24:32.674Z,5.89
2023-05-03T22:26:59.858Z,5.88
2023-05-03T22:29:26.964Z,5.85
2023-05-03T22:31:53.950Z,5.84
2023-05-03T22:34:21.238Z,5.81
2023-05-03T22:36:48.099Z,5.77
2023-05-03T22:39:15.849Z,5.73
2023-05-03T22:41:42.716Z,5.69
2023-05-03T22:44:09.577Z,5.67
2023-05-03T22:46:36.404Z,5.67
2023-05-03T22:49:04.113Z,5.69
2023-05-03T22:51:31.928Z,5.69
2023-05-03T22:53:58.852Z,5.70
2023-05-03T22:56:25.684Z,5.64
2023-05-03T22:58:52.505Z,5.65
2023-05-03T23:01:19.498Z,5.63
2023-05-03T23:03:46.580Z,5.63
2023-05-03T23:06:14.536Z,5.60
2023-05-03T23:08:41.335Z,5.57
2023-05-03T23:11:08.303Z,5.57
2023-05-03T23:13:35.506Z,5.55
2023-05-03T23:16:02.580Z,5.48
2023-05-03T23:18:30.091Z,5.41
2023-05-03T23:20:56.869Z,5.33
2023-05-03T23:23:23.877Z,5.27
2023-05-03T23:25:50.652Z,5.20
2023-05-03T23:28:17.470Z,5.14
2023-05-03T23:30:45.411Z,5.07
2023-05-03T23:33:13.271Z,4.98
2023-05-03T23:35:41.546Z,4.89
2023-05-03T23:38:08.419Z,4.82
2023-05-03T23:40:35.252Z,4.75
2023-05-03T23:43:02.038Z,4.71
2023-05-03T23:45:28.808Z,4.66
2023-05-03T23:47:55.949Z,4.62
2023-05-03T23:50:22.942Z,4.55
2023-05-03T23:52:49.960Z,4.47
2023-05-03T23:55:16.795Z,4.39
2023-05-03T23:57:43.767Z,4.31
